createdAt,value
2019-04-25T00:00:23.238Z,21.70
2019-04-25T00:02:53.141Z,21.70
2019-04-25T00:05:23.005Z,21.70
2019-04-25T00:07:52.887Z,21.60
2019-04-25T00:10:22.808Z,21.60
2019-04-25T00:12:52.614Z,21.70
2019-04-25T00:15:22.452Z,21.60
2019-04-25T00:17:52.373Z,21.70
2019-04-25T00:20:22.502Z,21.70
2019-04-25T00:22:58.474Z,21.60
2019-04-25T00:25:48.045Z,21.60
2019-04-25T00:28:18.333Z,21.60
2019-04-25T00:30:48.158Z,21.60
2019-04-25T00:33:18.011Z,21.60
2019-04-25T00:35:47.849Z,21.60
2019-04-25T00:38:17.667Z,21.60
2019-04-25T00:40:48.072Z,21.60
2019-04-25T00:43:17.882Z,21.60
2019-04-25T00:45:47.713Z,21.60
2019-04-25T00:48:17.643Z,21.60
2019-04-25T00:50:48.000Z,21.60
2019-04-25T00:53:17.833Z,21.60
2019-04-25T00:55:48.580Z,21.60
2019-04-25T00:58:42.175Z,21.60
2019-04-25T01:01:21.879Z,21.60
2019-04-25T01:03:53.354Z,21.60
2019-04-25T01:06:23.460Z,21.60
2019-04-25T01:08:54.590Z,21.60
2019-04-25T01:11:24.850Z,21.60
2019-04-25T01:13:54.776Z,21.60
2019-04-25T01:16:24.559Z,21.60
2019-04-25T01:18:55.365Z,21.60
2019-04-25T01:21:25.440Z,21.60
2019-04-25T01:23:55.792Z,21.60
2019-04-25T01:26:25.927Z,21.60
2019-04-25T01:28:56.050Z,21.50
2019-04-25T01:31:27.604Z,21.60
2019-04-25T01:33:57.568Z,21.60
2019-04-25T01:36:55.903Z,21.60
2019-04-25T01:39:55.060Z,21.50
2019-04-25T01:42:56.115Z,21.50
2019-04-25T01:45:29.314Z,21.40
2019-04-25T01:47:59.210Z,21.40
2019-04-25T01:50:28.972Z,21.40
2019-04-25T01:52:58.846Z,21.40
2019-04-25T01:55:28.640Z,21.50
2019-04-25T01:57:59.348Z,21.50
2019-04-25T02:00:36.566Z,21.50
2019-04-25T02:03:07.569Z,21.50
2019-04-25T02:05:37.493Z,21.50
2019-04-25T02:08:07.533Z,21.50
2019-04-25T02:10:37.383Z,21.50
2019-04-25T02:13:09.718Z,21.50
2019-04-25T02:15:39.593Z,21.50
2019-04-25T02:18:09.344Z,21.50
2019-04-25T02:20:39.109Z,21.50
2019-04-25T02:23:08.921Z,21.50
2019-04-25T02:25:38.823Z,21.50
2019-04-25T02:28:08.603Z,21.50
2019-04-25T02:30:38.765Z,21.50
2019-04-25T02:33:09.315Z,21.50
2019-04-25T02:35:42.883Z,21.50
2019-04-25T02:38:10.791Z,21.50
2019-04-25T02:40:40.621Z,21.50
2019-04-25T02:43:10.476Z,21.50
2019-04-25T02:46:11.364Z,21.50
2019-04-25T02:49:09.241Z,21.50
2019-04-25T02:51:41.057Z,21.40
2019-04-25T02:54:10.914Z,21.40
2019-04-25T02:56:40.748Z,21.40
2019-04-25T02:59:10.551Z,21.40
2019-04-25T03:01:40.523Z,21.40
2019-04-25T03:04:11.431Z,21.40
2019-04-25T03:06:41.516Z,21.40
2019-04-25T03:09:15.130Z,21.40
2019-04-25T03:11:45.075Z,21.40
2019-04-25T03:14:15.683Z,21.40
2019-04-25T03:16:45.440Z,21.40
2019-04-25T03:19:43.973Z,21.40
2019-04-25T03:22:15.918Z,21.40
2019-04-25T03:24:45.996Z,21.40
2019-04-25T03:27:15.926Z,21.40
2019-04-25T03:29:45.869Z,21.40
2019-04-25T03:32:19.569Z,21.40
2019-04-25T03:34:47.202Z,21.40
2019-04-25T03:37:17.187Z,21.40
2019-04-25T03:39:47.046Z,21.40
2019-04-25T03:42:16.907Z,21.40
2019-04-25T03:44:46.708Z,21.40
2019-04-25T03:47:16.592Z,21.40
2019-04-25T03:49:46.342Z,21.40
2019-04-25T03:52:16.117Z,21.40
2019-04-25T03:54:46.002Z,21.40
2019-04-25T03:57:15.802Z,21.40
2019-04-25T03:59:45.562Z,21.40
2019-04-25T04:02:15.390Z,21.40
2019-04-25T04:04:45.139Z,21.40
2019-04-25T04:07:15.927Z,21.40
2019-04-25T04:09:45.803Z,21.40
2019-04-25T04:12:15.763Z,21.40
2019-04-25T04:14:45.630Z,21.40
2019-04-25T04:17:24.237Z,21.40
2019-04-25T04:20:11.551Z,21.40
2019-04-25T04:22:44.319Z,21.30
2019-04-25T04:25:15.952Z,21.30
2019-04-25T04:27:45.885Z,21.30
2019-04-25T04:30:16.452Z,21.30
2019-04-25T04:32:46.411Z,21.30
2019-04-25T04:35:17.459Z,21.30
2019-04-25T04:37:47.365Z,21.30
2019-04-25T04:40:18.544Z,21.30
2019-04-25T04:42:48.609Z,21.30
2019-04-25T04:45:18.702Z,21.30
2019-04-25T04:47:48.491Z,21.30
2019-04-25T04:50:18.740Z,21.30
2019-04-25T04:52:48.580Z,21.30
2019-04-25T04:55:18.837Z,21.30
2019-04-25T04:57:49.671Z,21.30
2019-04-25T05:00:19.687Z,21.30
2019-04-25T05:03:01.680Z,21.30
2019-04-25T05:06:03.716Z,21.30
2019-04-25T05:08:36.682Z,21.30
2019-04-25T05:11:06.458Z,21.20
2019-04-25T05:13:36.304Z,21.20
2019-04-25T05:16:06.166Z,21.20
2019-04-25T05:18:39.473Z,21.20
2019-04-25T05:21:07.470Z,21.20
2019-04-25T05:23:37.314Z,21.20
2019-04-25T05:26:07.367Z,21.20
2019-04-25T05:28:37.203Z,21.20
2019-04-25T05:31:25.611Z,21.20
2019-04-25T05:33:55.603Z,21.20
2019-04-25T05:36:29.251Z,21.20
2019-04-25T05:38:59.202Z,21.20
2019-04-25T05:41:41.278Z,21.20
2019-04-25T05:44:11.052Z,21.20
2019-04-25T05:46:40.896Z,21.20
2019-04-25T05:49:10.697Z,21.20
2019-04-25T05:51:40.507Z,21.20
2019-04-25T05:54:10.414Z,21.20
2019-04-25T05:56:40.183Z,21.20
2019-04-25T05:59:10.082Z,21.20
2019-04-25T06:01:39.903Z,21.20
2019-04-25T06:04:09.911Z,21.20
2019-04-25T06:06:39.710Z,21.20
2019-04-25T06:09:24.031Z,21.20
2019-04-25T06:12:03.084Z,21.20
2019-04-25T06:14:33.424Z,21.20
2019-04-25T06:17:06.362Z,21.20
2019-04-25T06:19:48.992Z,21.20
2019-04-25T06:22:24.675Z,21.20
2019-04-25T06:25:00.053Z,21.20
2019-04-25T06:27:43.637Z,21.10
2019-04-25T06:30:29.799Z,21.10
2019-04-25T06:32:59.667Z,21.10
2019-04-25T06:35:29.619Z,21.10
2019-04-25T06:37:59.450Z,21.10
2019-04-25T06:40:30.581Z,21.10
2019-04-25T06:43:00.578Z,21.10
2019-04-25T06:45:44.174Z,21.20
2019-04-25T06:48:36.347Z,21.20
2019-04-25T06:51:06.394Z,21.10
2019-04-25T06:53:36.207Z,21.10
2019-04-25T06:56:06.449Z,21.10
2019-04-25T06:58:36.435Z,21.10
2019-04-25T07:01:06.324Z,21.10
2019-04-25T07:03:36.113Z,21.10
2019-04-25T07:06:06.049Z,21.10
2019-04-25T07:08:35.837Z,21.20
2019-04-25T07:11:06.035Z,21.20
2019-04-25T07:13:38.794Z,21.20
2019-04-25T07:16:07.688Z,21.20
2019-04-25T07:18:37.607Z,21.20
2019-04-25T07:21:07.497Z,21.20
2019-04-25T07:23:38.084Z,21.20
2019-04-25T07:26:17.931Z,21.20
2019-04-25T07:29:05.461Z,21.20
2019-04-25T07:31:44.288Z,21.10
2019-04-25T07:34:22.219Z,21.10
2019-04-25T07:36:53.464Z,21.10
2019-04-25T07:39:23.682Z,21.10
2019-04-25T07:41:54.092Z,21.10
2019-04-25T07:44:35.339Z,21.10
2019-04-25T07:46:55.580Z,21.10
2019-04-25T07:49:26.709Z,21.10
2019-04-25T07:51:56.896Z,21.10
2019-04-25T07:54:27.862Z,21.10
2019-04-25T07:56:58.328Z,21.10
2019-04-25T07:59:28.988Z,21.10
2019-04-25T08:01:58.991Z,21.10
2019-04-25T08:04:29.068Z,21.10
2019-04-25T08:06:58.984Z,21.10
2019-04-25T08:09:29.549Z,21.10
2019-04-25T08:11:59.471Z,21.10
2019-04-25T08:15:00.234Z,21.10
2019-04-25T08:17:48.047Z,21.10
2019-04-25T08:20:19.982Z,21.10
2019-04-25T08:22:56.539Z,21.10
2019-04-25T08:25:23.510Z,21.10
2019-04-25T08:27:55.086Z,21.10
2019-04-25T08:30:25.034Z,21.10
2019-04-25T08:32:55.467Z,21.10
2019-04-25T08:35:25.515Z,21.10
2019-04-25T08:37:55.286Z,21.10
2019-04-25T08:40:25.491Z,21.10
2019-04-25T08:42:55.523Z,21.10
2019-04-25T08:45:25.628Z,21.10
2019-04-25T08:47:55.451Z,21.20
2019-04-25T08:50:33.114Z,21.20
2019-04-25T08:53:03.885Z,21.20
2019-04-25T08:55:59.076Z,21.10
2019-04-25T08:58:47.876Z,21.20
2019-04-25T09:01:39.502Z,21.10
2019-04-25T09:04:17.594Z,21.10
2019-04-25T09:06:47.372Z,21.10
2019-04-25T09:09:17.169Z,21.10
2019-04-25T09:11:47.095Z,21.10
2019-04-25T09:14:16.931Z,21.10
2019-04-25T09:16:46.839Z,21.10
2019-04-25T09:19:16.716Z,21.10
2019-04-25T09:21:49.512Z,21.10
2019-04-25T09:24:19.163Z,21.20
2019-04-25T09:26:49.043Z,21.20
2019-04-25T09:29:19.877Z,21.20
2019-04-25T09:31:49.919Z,21.20
2019-04-25T09:34:19.710Z,21.20
2019-04-25T09:36:49.535Z,21.20
2019-04-25T09:39:41.341Z,21.20
2019-04-25T09:42:11.546Z,21.20
2019-04-25T09:45:00.362Z,21.10
2019-04-25T09:47:30.311Z,21.20
2019-04-25T09:50:01.705Z,21.10
2019-04-25T09:52:31.629Z,21.10
2019-04-25T09:55:13.281Z,21.20
2019-04-25T09:58:00.083Z,21.20
2019-04-25T10:00:38.159Z,21.10
2019-04-25T10:03:08.202Z,21.10
2019-04-25T10:05:38.468Z,21.10
2019-04-25T10:08:08.586Z,21.10
2019-04-25T10:10:38.857Z,21.20
2019-04-25T10:13:09.107Z,21.20
2019-04-25T10:16:04.573Z,21.20
2019-04-25T10:18:35.344Z,21.20
2019-04-25T10:21:08.352Z,21.10
2019-04-25T10:23:38.276Z,21.10
2019-04-25T10:26:09.978Z,21.20
2019-04-25T10:28:41.550Z,21.20
2019-04-25T10:31:13.658Z,21.20
2019-04-25T10:33:46.670Z,21.20
2019-04-25T10:36:15.511Z,21.20
2019-04-25T10:39:01.498Z,21.20
2019-04-25T10:41:17.435Z,21.20
2019-04-25T10:43:48.129Z,21.20
2019-04-25T10:46:18.410Z,21.20
2019-04-25T10:48:48.347Z,21.20
2019-04-25T10:51:18.109Z,21.20
2019-04-25T10:53:48.791Z,21.20
2019-04-25T10:56:18.751Z,21.20
2019-04-25T10:58:48.606Z,21.20
2019-04-25T11:01:18.412Z,21.20
2019-04-25T11:04:04.578Z,21.20
2019-04-25T11:06:34.530Z,21.20
2019-04-25T11:09:06.032Z,21.20
2019-04-25T11:11:36.694Z,21.20
2019-04-25T11:14:07.571Z,21.20
2019-04-25T11:16:37.537Z,21.20
2019-04-25T11:19:07.458Z,21.20
2019-04-25T11:21:37.390Z,21.20
2019-04-25T11:24:07.514Z,21.20
2019-04-25T11:26:37.421Z,21.30
2019-04-25T11:29:07.522Z,21.30
2019-04-25T11:31:46.169Z,21.30
2019-04-25T11:34:17.799Z,21.30
2019-04-25T11:36:48.428Z,21.30
2019-04-25T11:39:35.915Z,21.30
2019-04-25T11:42:16.507Z,21.30
2019-04-25T11:44:46.658Z,21.20
2019-04-25T11:47:16.496Z,21.20
2019-04-25T11:49:47.741Z,21.20
2019-04-25T11:52:27.570Z,21.30
2019-04-25T11:54:50.234Z,21.30
2019-04-25T11:57:20.108Z,21.30
2019-04-25T11:59:50.606Z,21.30
2019-04-25T12:02:21.967Z,21.30
2019-04-25T12:04:51.842Z,21.30
2019-04-25T12:07:21.622Z,21.30
2019-04-25T12:09:52.237Z,21.30
2019-04-25T12:12:23.588Z,21.30
2019-04-25T12:14:55.019Z,21.30
2019-04-25T12:17:26.195Z,21.30
2019-04-25T12:19:56.241Z,21.30
2019-04-25T12:22:26.189Z,21.30
2019-04-25T12:24:55.955Z,21.30
2019-04-25T12:27:26.108Z,21.30
2019-04-25T12:29:56.080Z,21.30
2019-04-25T12:32:25.865Z,21.40
2019-04-25T12:34:56.132Z,21.30
2019-04-25T12:37:26.171Z,21.40
2019-04-25T12:39:56.126Z,21.40
2019-04-25T12:42:28.923Z,21.40
2019-04-25T12:45:16.709Z,21.40
2019-04-25T12:47:47.847Z,21.40
2019-04-25T12:50:18.808Z,21.30
2019-04-25T12:52:48.884Z,21.30
2019-04-25T12:55:19.381Z,21.30
2019-04-25T12:57:49.447Z,21.30
2019-04-25T13:00:24.261Z,21.30
2019-04-25T13:02:55.046Z,21.40
2019-04-25T13:05:24.838Z,21.40
2019-04-25T13:07:57.394Z,21.40
2019-04-25T13:10:26.257Z,21.40
2019-04-25T13:12:56.051Z,21.40
2019-04-25T13:15:27.051Z,21.40
2019-04-25T13:17:57.350Z,21.40
2019-04-25T13:20:27.326Z,21.40
2019-04-25T13:22:57.176Z,21.40
2019-04-25T13:25:27.047Z,21.40
2019-04-25T13:28:09.038Z,21.40
2019-04-25T13:31:05.883Z,21.40
2019-04-25T13:33:59.865Z,21.40
2019-04-25T13:36:30.187Z,21.40
2019-04-25T13:38:59.947Z,21.30
2019-04-25T13:41:29.780Z,21.30
2019-04-25T13:43:59.687Z,21.40
2019-04-25T13:46:29.622Z,21.40
2019-04-25T13:48:59.603Z,21.40
2019-04-25T13:51:29.494Z,21.40
2019-04-25T13:53:59.358Z,21.40
2019-04-25T13:56:29.458Z,21.40
2019-04-25T13:58:59.311Z,21.40
2019-04-25T14:01:29.700Z,21.40
2019-04-25T14:03:59.607Z,21.40
2019-04-25T14:06:30.350Z,21.40
2019-04-25T14:09:00.193Z,21.40
2019-04-25T14:11:30.160Z,21.40
2019-04-25T14:14:00.167Z,21.40
2019-04-25T14:16:48.947Z,21.40
2019-04-25T14:19:33.559Z,21.40
2019-04-25T14:22:04.627Z,21.40
2019-04-25T14:24:35.827Z,21.40
2019-04-25T14:27:06.298Z,21.40
2019-04-25T14:29:36.268Z,21.40
2019-04-25T14:32:08.126Z,21.40
2019-04-25T14:34:37.956Z,21.40
2019-04-25T14:37:07.803Z,21.40
2019-04-25T14:39:37.640Z,21.40
2019-04-25T14:42:07.502Z,21.50
2019-04-25T14:44:37.351Z,21.50
2019-04-25T14:47:07.267Z,21.50
2019-04-25T14:49:37.131Z,21.50
2019-04-25T14:52:06.919Z,21.50
2019-04-25T14:54:42.763Z,21.50
2019-04-25T14:57:24.707Z,21.50
2019-04-25T14:59:54.594Z,21.50
2019-04-25T15:02:26.019Z,21.40
2019-04-25T15:04:55.882Z,21.50
2019-04-25T15:07:25.691Z,21.50
2019-04-25T15:09:55.545Z,21.50
2019-04-25T15:12:25.399Z,21.50
2019-04-25T15:14:55.343Z,21.50
2019-04-25T15:17:25.176Z,21.50
2019-04-25T15:19:54.934Z,21.50
2019-04-25T15:22:25.666Z,21.50
2019-04-25T15:24:55.491Z,21.50
2019-04-25T15:27:25.375Z,21.50
2019-04-25T15:29:55.459Z,21.50
2019-04-25T15:32:28.229Z,21.50
2019-04-25T15:34:58.854Z,21.50
2019-04-25T15:37:50.197Z,21.50
2019-04-25T15:40:42.046Z,21.50
2019-04-25T15:43:26.204Z,21.50
2019-04-25T15:46:03.888Z,21.40
2019-04-25T15:48:33.914Z,21.40
2019-04-25T15:51:03.733Z,21.40
2019-04-25T15:53:33.515Z,21.50
2019-04-25T15:56:03.475Z,21.50
2019-04-25T15:58:33.344Z,21.50
2019-04-25T16:01:04.842Z,21.50
2019-04-25T16:03:35.212Z,21.50
2019-04-25T16:06:05.294Z,21.50
2019-04-25T16:08:35.193Z,21.50
2019-04-25T16:11:05.204Z,21.50
2019-04-25T16:13:35.079Z,21.50
2019-04-25T16:16:05.546Z,21.60
2019-04-25T16:18:35.391Z,21.60
2019-04-25T16:21:05.594Z,21.60
2019-04-25T16:23:36.362Z,21.60
2019-04-25T16:26:06.803Z,21.60
2019-04-25T16:28:36.578Z,21.60
2019-04-25T16:31:07.975Z,21.60
2019-04-25T16:33:37.935Z,21.60
2019-04-25T16:36:09.206Z,21.60
2019-04-25T16:38:39.254Z,21.60
2019-04-25T16:41:09.721Z,21.60
2019-04-25T16:43:43.192Z,21.60
2019-04-25T16:46:14.030Z,21.60
2019-04-25T16:48:43.782Z,21.60
2019-04-25T16:51:13.749Z,21.60
2019-04-25T16:53:43.569Z,21.60
2019-04-25T16:56:13.520Z,21.60
2019-04-25T16:58:43.428Z,21.60
2019-04-25T17:01:15.222Z,21.60
2019-04-25T17:03:45.658Z,21.60
2019-04-25T17:06:15.845Z,21.60
2019-04-25T17:08:46.005Z,21.60
2019-04-25T17:11:15.949Z,21.60
2019-04-25T17:14:13.548Z,21.60
2019-04-25T17:17:17.235Z,21.60
2019-04-25T17:20:08.930Z,21.60
2019-04-25T17:22:39.611Z,21.50
2019-04-25T17:25:09.879Z,21.50
2019-04-25T17:27:39.914Z,21.50
2019-04-25T17:30:10.379Z,21.60
2019-04-25T17:32:58.014Z,21.60
2019-04-25T17:35:55.666Z,21.60
2019-04-25T17:38:47.764Z,21.60
2019-04-25T17:41:17.677Z,21.50
2019-04-25T17:43:47.610Z,21.50
2019-04-25T17:46:18.843Z,21.50
2019-04-25T17:48:48.673Z,21.60
2019-04-25T17:51:18.572Z,21.60
2019-04-25T17:53:48.447Z,21.60
2019-04-25T17:56:18.540Z,21.60
2019-04-25T17:58:48.294Z,21.60
2019-04-25T18:01:22.649Z,21.60
2019-04-25T18:03:52.486Z,21.70
2019-04-25T18:06:22.311Z,21.60
2019-04-25T18:08:52.148Z,21.60
2019-04-25T18:11:22.014Z,21.70
2019-04-25T18:13:51.820Z,21.70
2019-04-25T18:16:43.559Z,21.70
2019-04-25T18:19:35.302Z,21.70
2019-04-25T18:22:13.012Z,21.60
2019-04-25T18:25:10.653Z,21.60
2019-04-25T18:28:03.982Z,21.60
2019-04-25T18:30:35.599Z,21.60
2019-04-25T18:33:11.855Z,21.60
2019-04-25T18:35:43.062Z,21.60
2019-04-25T18:38:25.968Z,21.60
2019-04-25T18:41:05.191Z,21.60
2019-04-25T18:43:41.428Z,21.60
2019-04-25T18:46:17.580Z,21.60
2019-04-25T18:48:47.450Z,21.60
2019-04-25T18:51:17.275Z,21.60
2019-04-25T18:54:04.982Z,21.70
2019-04-25T18:56:53.635Z,21.70
2019-04-25T18:59:41.587Z,21.70
2019-04-25T19:02:29.492Z,21.60
2019-04-25T19:05:36.335Z,21.60
2019-04-25T19:08:06.544Z,21.60
2019-04-25T19:10:36.338Z,21.50
2019-04-25T19:13:12.554Z,21.60
2019-04-25T19:15:39.704Z,21.60
2019-04-25T19:18:09.290Z,21.60
2019-04-25T19:20:39.989Z,21.70
2019-04-25T19:23:09.896Z,21.70
2019-04-25T19:25:40.273Z,21.70
2019-04-25T19:28:10.273Z,21.70
2019-04-25T19:30:40.999Z,21.70
2019-04-25T19:33:11.033Z,21.70
2019-04-25T19:35:41.700Z,21.70
2019-04-25T19:38:11.498Z,21.70
2019-04-25T19:41:00.543Z,21.70
2019-04-25T19:43:34.824Z,21.70
2019-04-25T19:46:04.746Z,21.70
2019-04-25T19:48:34.584Z,21.70
2019-04-25T19:51:04.413Z,21.70
2019-04-25T19:53:34.391Z,21.70
2019-04-25T19:56:04.217Z,21.70
2019-04-25T19:58:34.014Z,21.70
2019-04-25T20:01:03.896Z,21.80
2019-04-25T20:03:54.127Z,21.80
2019-04-25T20:06:47.879Z,21.80
2019-04-25T20:09:35.428Z,21.70
2019-04-25T20:12:05.474Z,21.70
2019-04-25T20:14:35.313Z,21.70
2019-04-25T20:17:05.066Z,21.70
2019-04-25T20:19:34.940Z,21.70
2019-04-25T20:22:04.736Z,21.70
2019-04-25T20:24:34.652Z,21.70
2019-04-25T20:27:04.564Z,21.70
2019-04-25T20:29:34.487Z,21.70
2019-04-25T20:32:07.021Z,21.70
2019-04-25T20:34:35.894Z,21.80
2019-04-25T20:37:05.858Z,21.80
2019-04-25T20:39:35.706Z,21.80
2019-04-25T20:42:05.600Z,21.80
2019-04-25T20:44:36.652Z,21.80
2019-04-25T20:47:06.629Z,21.80
2019-04-25T20:49:36.391Z,21.80
2019-04-25T20:52:06.477Z,21.80
2019-04-25T20:54:36.242Z,21.80
2019-04-25T20:57:06.250Z,21.80
2019-04-25T20:59:36.072Z,21.80
2019-04-25T21:02:06.838Z,21.80
2019-04-25T21:04:43.074Z,21.80
2019-04-25T21:07:13.002Z,21.80
2019-04-25T21:09:42.811Z,21.80
2019-04-25T21:12:12.582Z,21.80
2019-04-25T21:15:10.092Z,21.80
2019-04-25T21:18:14.141Z,21.80
2019-04-25T21:20:44.129Z,21.70
2019-04-25T21:23:14.090Z,21.70
2019-04-25T21:25:43.969Z,21.70
2019-04-25T21:28:13.822Z,21.70
2019-04-25T21:30:43.731Z,21.70
2019-04-25T21:33:13.584Z,21.70
2019-04-25T21:35:43.705Z,21.80
2019-04-25T21:38:15.292Z,21.80
2019-04-25T21:41:10.770Z,21.80
2019-04-25T21:43:45.343Z,21.80
2019-04-25T21:46:15.422Z,21.70
2019-04-25T21:48:45.577Z,21.70
2019-04-25T21:51:34.108Z,21.70
2019-04-25T21:54:04.315Z,21.70
2019-04-25T21:56:34.538Z,21.70
2019-04-25T21:59:04.423Z,21.70
2019-04-25T22:01:40.188Z,21.70
2019-04-25T22:04:10.550Z,21.70
2019-04-25T22:06:40.699Z,21.70
2019-04-25T22:09:16.033Z,21.70
2019-04-25T22:11:46.130Z,21.80
2019-04-25T22:14:16.823Z,21.70
2019-04-25T22:16:47.073Z,21.80
2019-04-25T22:19:17.479Z,21.80
2019-04-25T22:21:47.726Z,21.80
2019-04-25T22:24:17.610Z,21.80
2019-04-25T22:26:49.456Z,21.80
2019-04-25T22:29:19.533Z,21.80
2019-04-25T22:32:11.221Z,21.80
2019-04-25T22:34:52.367Z,21.80
2019-04-25T22:37:21.509Z,21.70
2019-04-25T22:39:51.616Z,21.70
2019-04-25T22:42:21.406Z,21.70
2019-04-25T22:44:51.302Z,21.70
2019-04-25T22:47:21.188Z,21.80
2019-04-25T22:49:50.991Z,21.80
2019-04-25T22:52:21.079Z,21.80
2019-04-25T22:54:51.019Z,21.80
2019-04-25T22:57:21.118Z,21.80
2019-04-25T22:59:50.916Z,21.80
2019-04-25T23:02:27.726Z,21.80
2019-04-25T23:05:15.746Z,21.80
2019-04-25T23:07:41.669Z,21.80
2019-04-25T23:10:12.351Z,21.80
2019-04-25T23:12:42.347Z,21.80
2019-04-25T23:15:13.621Z,21.80
2019-04-25T23:17:43.438Z,21.80
2019-04-25T23:20:13.938Z,21.80
2019-04-25T23:22:43.913Z,21.80
2019-04-25T23:25:15.589Z,21.80
2019-04-25T23:28:08.017Z,21.80
2019-04-25T23:30:47.198Z,21.80
2019-04-25T23:33:17.147Z,21.70
2019-04-25T23:35:48.900Z,21.70
2019-04-25T23:38:18.679Z,21.70
2019-04-25T23:40:48.743Z,21.70
2019-04-25T23:43:18.795Z,21.70
2019-04-25T23:45:48.678Z,21.70
2019-04-25T23:48:18.760Z,21.80
2019-04-25T23:50:48.573Z,21.80
2019-04-25T23:53:18.404Z,21.80
2019-04-25T23:55:48.319Z,21.80
2019-04-25T23:58:18.128Z,21.80
